Time;durP1;ratioP1;P1;durP2;ratioP2;P2;SDS_P1;SDS_P2;PMS_P1;PMS_P2;Temp;Humidity;BMP_temperature;BMP_pressure;BME280_temperature;BME280_humidity;BME280_pressure;Samples;Min_cycle;Max_cycle;Signal;HPM_P1;HPM_P2
2021/03/17 00:00:11;;;;;;;3.30;1.67;;;7.40;70.20;;;;;;2589116;52;20931;-64
2021/03/17 00:02:38;;;;;;;3.20;1.60;;;7.40;70.30;;;;;;2343555;53;21656;-63
2021/03/17 00:05:07;;;;;;;4.72;2.37;;;7.40;70.40;;;;;;2347162;53;21082;-63
2021/03/17 00:07:33;;;;;;;3.65;2.08;;;7.40;70.40;;;;;;2347906;53;21026;-63
2021/03/17 00:10:00;;;;;;;5.68;3.22;;;7.40;70.40;;;;;;2343162;53;20928;-63
2021/03/17 00:12:26;;;;;;;8.45;4.00;;;7.40;70.60;;;;;;2590407;52;21031;-63
2021/03/17 00:14:55;;;;;;;8.90;4.70;;;7.40;70.60;;;;;;2346426;53;20938;-63
2021/03/17 00:17:23;;;;;;;6.90;3.65;;;7.40;70.50;;;;;;2344056;53;20948;-63
2021/03/17 00:19:52;;;;;;;5.75;3.00;;;7.40;70.40;;;;;;2344213;54;20927;-64
2021/03/17 00:22:21;;;;;;;4.65;2.10;;;7.40;70.40;;;;;;2589981;52;21060;-63
2021/03/17 00:24:48;;;;;;;3.83;2.05;;;7.40;70.40;;;;;;2346436;53;20943;-63
2021/03/17 00:27:14;;;;;;;3.22;1.60;;;7.40;70.30;;;;;;2344026;53;21799;-63
2021/03/17 00:29:41;;;;;;;3.33;1.60;;;7.40;70.30;;;;;;2590685;52;20956;-63
2021/03/17 00:32:08;;;;;;;2.83;1.42;;;7.40;70.30;;;;;;2344385;54;21036;-63
2021/03/17 00:34:34;;;;;;;2.75;1.45;;;7.40;70.40;;;;;;2343882;54;20940;-63
2021/03/17 00:37:01;;;;;;;7.07;3.00;;;7.40;70.40;;;;;;2344043;54;20968;-63
2021/03/17 00:39:27;;;;;;;4.57;2.72;;;7.30;70.50;;;;;;2590813;52;20988;-63
2021/03/17 00:41:54;;;;;;;3.45;1.90;;;7.30;70.60;;;;;;2347815;54;20996;-63
2021/03/17 00:44:22;;;;;;;3.17;1.60;;;7.40;70.80;;;;;;2347169;53;20964;-63
2021/03/17 00:46:48;;;;;;;2.83;1.60;;;7.40;70.80;;;;;;2342729;53;20956;-63
2021/03/17 00:49:14;;;;;;;3.60;1.33;;;7.40;70.80;;;;;;2343577;54;20943;-63
2021/03/17 00:51:41;;;;;;;3.08;1.27;;;7.40;70.80;;;;;;2590396;52;21079;-64
2021/03/17 00:54:08;;;;;;;3.05;1.60;;;7.40;70.70;;;;;;2343986;54;21472;-63
2021/03/17 00:56:34;;;;;;;4.07;2.10;;;7.40;70.60;;;;;;2344974;54;20952;-63
2021/03/17 00:59:00;;;;;;;3.67;1.92;;;7.40;70.50;;;;;;2347697;53;20951;-63
2021/03/17 01:01:30;;;;;;;3.42;1.70;;;7.40;70.50;;;;;;2342295;53;21482;-64
2021/03/17 01:03:56;;;;;;;3.60;1.80;;;7.40;70.20;;;;;;2346375;53;20966;-63
2021/03/17 01:06:22;;;;;;;3.80;1.50;;;7.30;70.10;;;;;;2343431;53;20964;-63
2021/03/17 01:08:49;;;;;;;2.33;1.02;;;7.30;70.20;;;;;;2590680;52;21003;-64
2021/03/17 01:11:16;;;;;;;2.75;1.20;;;7.30;70.40;;;;;;2591109;52;20944;-63
2021/03/17 01:13:42;;;;;;;2.50;1.30;;;7.30;70.50;;;;;;2589706;53;20928;-64
2021/03/17 01:16:09;;;;;;;2.47;1.10;;;7.30;70.50;;;;;;2343343;54;21453;-64
2021/03/17 01:18:35;;;;;;;2.37;1.25;;;7.30;70.60;;;;;;2344899;54;21448;-63
2021/03/17 01:21:04;;;;;;;2.80;1.30;;;7.30;70.70;;;;;;2347332;53;20931;-64
2021/03/17 01:23:30;;;;;;;2.47;1.15;;;7.30;70.70;;;;;;2344100;53;21004;-63
2021/03/17 01:26:00;;;;;;;2.50;1.25;;;7.30;70.80;;;;;;2591150;52;20992;-63
2021/03/17 01:28:26;;;;;;;2.33;1.08;;;7.30;70.80;;;;;;2589390;52;21002;-64
2021/03/17 01:30:55;;;;;;;2.55;1.10;;;7.30;70.80;;;;;;2590476;53;20959;-63
2021/03/17 01:33:24;;;;;;;3.95;1.77;;;7.40;70.80;;;;;;2344057;54;20920;-64
2021/03/17 01:35:50;;;;;;;3.12;1.40;;;7.40;70.60;;;;;;2348441;53;21431;-64
2021/03/17 01:38:17;;;;;;;2.87;1.60;;;7.30;70.50;;;;;;2339748;53;20939;-63
2021/03/17 01:40:44;;;;;;;3.00;1.60;;;7.30;70.60;;;;;;2347039;53;21374;-64
2021/03/17 01:43:10;;;;;;;4.35;2.08;;;7.30;70.80;;;;;;2344737;54;21059;-64
2021/03/17 01:45:37;;;;;;;2.97;1.33;;;7.30;70.60;;;;;;2351466;53;21840;-64
2021/03/17 01:48:04;;;;;;;3.67;1.52;;;7.30;70.60;;;;;;2336409;53;20983;-64
2021/03/17 01:50:38;;;;;;;2.62;1.30;;;7.30;70.50;;;;;;2346003;54;20987;-64
2021/03/17 01:53:08;;;;;;;2.05;0.95;;;7.30;70.50;;;;;;2350545;53;21004;-64
2021/03/17 01:55:35;;;;;;;2.40;1.10;;;7.30;70.50;;;;;;2587985;53;20972;-64
2021/03/17 01:58:02;;;;;;;2.05;1.00;;;7.30;70.60;;;;;;2344893;53;21823;-64
2021/03/17 02:00:28;;;;;;;2.22;1.08;;;7.30;70.70;;;;;;2340913;53;20952;-64
2021/03/17 02:02:55;;;;;;;2.20;1.02;;;7.30;70.80;;;;;;2347033;53;21071;-63
2021/03/17 02:05:30;;;;;;;2.00;0.98;;;7.40;70.80;;;;;;2343584;53;21835;-63
2021/03/17 02:07:58;;;;;;;3.25;1.05;;;7.40;70.80;;;;;;2347321;53;20963;-64
2021/03/17 02:10:25;;;;;;;2.20;1.10;;;7.40;70.80;;;;;;2324388;53;21034;-64
2021/03/17 02:18:09;;;;;;;2.47;1.25;;;7.40;70.80;;;;;;2345632;54;20897;-63
2021/03/17 02:24:22;;;;;;;2.42;1.08;;;7.40;70.70;;;;;;2344421;54;21511;-63
2021/03/17 02:32:12;;;;;;;2.33;1.00;;;7.40;70.10;;;;;;2347469;53;20931;-63
2021/03/17 02:34:41;;;;;;;1.60;0.70;;;7.40;70.50;;;;;;2345370;53;20975;-64
2021/03/17 02:37:08;;;;;;;1.98;0.90;;;7.40;70.60;;;;;;2578511;52;21032;-64
2021/03/17 02:39:46;;;;;;;1.80;0.80;;;7.40;70.80;;;;;;2339653;53;20938;-64
2021/03/17 02:43:43;;;;;;;1.80;0.85;;;7.40;70.90;;;;;;2587616;52;20936;-63
2021/03/17 02:46:11;;;;;;;2.00;1.00;;;7.40;70.40;;;;;;2587358;52;20953;-63
2021/03/17 02:48:44;;;;;;;1.77;0.80;;;7.40;70.80;;;;;;2337280;53;20951;-64
2021/03/17 02:51:21;;;;;;;2.10;0.82;;;7.40;70.80;;;;;;2344028;53;20973;-63
2021/03/17 02:53:47;;;;;;;2.25;0.98;;;7.40;70.80;;;;;;2343538;53;20976;-64
2021/03/17 02:56:14;;;;;;;2.35;1.00;;;7.40;70.80;;;;;;2350214;53;22332;-64
2021/03/17 02:58:44;;;;;;;2.37;1.00;;;7.40;70.90;;;;;;2573624;52;20951;-64
2021/03/17 03:01:13;;;;;;;2.03;0.90;;;7.50;71.00;;;;;;2349786;53;20961;-64
2021/03/17 03:03:39;;;;;;;2.00;0.98;;;7.50;71.10;;;;;;2589308;52;20924;-63
2021/03/17 03:06:05;;;;;;;1.77;0.80;;;7.50;71.10;;;;;;2342790;53;20949;-63
2021/03/17 03:08:32;;;;;;;1.92;0.90;;;7.50;71.10;;;;;;2591033;52;20937;-64
2021/03/17 03:10:58;;;;;;;2.10;0.90;;;7.50;71.10;;;;;;2325084;54;20992;-64
2021/03/17 03:13:25;;;;;;;1.98;0.90;;;7.50;71.10;;;;;;2347001;53;20928;-64
2021/03/17 03:15:58;;;;;;;2.50;1.10;;;7.50;71.10;;;;;;2327812;55;20928;-64
2021/03/17 03:18:25;;;;;;;2.12;1.05;;;7.50;71.10;;;;;;2579280;52;21733;-64
2021/03/17 03:20:52;;;;;;;1.87;0.80;;;7.50;71.10;;;;;;2330296;53;20944;-64
2021/03/17 03:23:22;;;;;;;2.40;1.12;;;7.50;71.10;;;;;;2344244;53;20988;-63
2021/03/17 03:25:48;;;;;;;2.60;1.00;;;7.50;71.10;;;;;;2347074;53;20922;-64
2021/03/17 03:28:15;;;;;;;2.30;1.02;;;7.50;71.20;;;;;;2563501;53;20948;-64
2021/03/17 03:30:46;;;;;;;1.83;0.80;;;7.50;71.20;;;;;;2344042;54;21635;-63
2021/03/17 03:33:12;;;;;;;2.35;1.10;;;7.60;71.30;;;;;;2347494;53;21334;-63
2021/03/17 03:35:41;;;;;;;2.58;1.23;;;7.60;71.30;;;;;;2590471;53;20991;-64
2021/03/17 03:38:19;;;;;;;2.47;1.20;;;7.60;71.10;;;;;;2330727;53;22041;-63
2021/03/17 03:40:45;;;;;;;2.70;1.30;;;7.60;70.70;;;;;;2343812;53;20924;-64
2021/03/17 03:43:11;;;;;;;2.80;1.50;;;7.40;70.60;;;;;;2346767;53;20919;-63
2021/03/17 03:45:38;;;;;;;2.55;1.33;;;7.60;70.80;;;;;;2589581;52;20917;-64
2021/03/17 03:48:04;;;;;;;2.47;1.30;;;7.60;70.80;;;;;;2584457;52;21011;-64
2021/03/17 03:50:33;;;;;;;3.95;1.80;;;7.60;70.90;;;;;;2336661;53;21710;-64
2021/03/17 03:56:37;;;;;;;2.90;1.40;;;7.60;71.00;;;;;;2590314;52;20935;-63
2021/03/17 03:59:12;;;;;;;2.58;1.12;;;7.60;70.30;;;;;;2325171;54;20928;-64
2021/03/17 04:01:48;;;;;;;2.47;1.12;;;7.60;70.80;;;;;;2328346;54;20907;-64
2021/03/17 04:04:16;;;;;;;2.58;1.27;;;7.60;70.80;;;;;;2591098;52;20968;-63
2021/03/17 04:06:52;;;;;;;2.25;1.00;;;7.60;70.90;;;;;;2342269;53;21501;-64
2021/03/17 04:09:26;;;;;;;1.87;0.90;;;7.60;70.90;;;;;;2344385;53;20948;-64
2021/03/17 04:12:00;;;;;;;1.77;0.90;;;7.60;71.00;;;;;;2343879;54;21036;-64
2021/03/17 04:14:28;;;;;;;2.20;1.00;;;7.60;71.00;;;;;;2590304;52;21233;-64
2021/03/17 04:17:01;;;;;;;1.80;0.90;;;7.60;71.10;;;;;;2345567;53;21100;-64
2021/03/17 04:19:28;;;;;;;2.10;1.00;;;7.60;71.10;;;;;;2571730;52;20939;-64
2021/03/17 04:21:54;;;;;;;1.92;0.90;;;7.60;71.10;;;;;;2344564;54;21128;-64
2021/03/17 04:24:22;;;;;;;2.33;1.17;;;7.60;71.10;;;;;;2589435;52;20952;-64
2021/03/17 04:26:48;;;;;;;2.70;1.25;;;7.60;71.00;;;;;;2342837;54;20983;-64
2021/03/17 04:29:15;;;;;;;2.45;1.27;;;7.60;71.00;;;;;;2588712;52;20969;-64
2021/03/17 04:31:41;;;;;;;2.67;1.48;;;7.60;71.00;;;;;;2344205;53;20925;-64
2021/03/17 04:34:08;;;;;;;3.05;1.12;;;7.60;71.00;;;;;;2343511;54;21020;-64
2021/03/17 04:36:34;;;;;;;2.22;1.17;;;7.60;71.00;;;;;;2344302;54;20928;-64
2021/03/17 04:39:01;;;;;;;2.72;1.33;;;7.60;71.10;;;;;;2590171;52;21087;-64
2021/03/17 04:41:27;;;;;;;2.35;1.12;;;7.60;71.00;;;;;;2343865;53;20932;-64
2021/03/17 04:43:53;;;;;;;2.62;1.30;;;7.40;70.80;;;;;;2344506;54;20980;-64
2021/03/17 04:46:20;;;;;;;2.92;1.60;;;7.60;71.00;;;;;;2346175;53;20998;-64
2021/03/17 04:48:46;;;;;;;2.40;1.17;;;7.60;71.00;;;;;;2352117;53;21766;-63
2021/03/17 04:51:15;;;;;;;2.80;1.30;;;7.60;70.90;;;;;;2582189;52;21016;-64
2021/03/17 04:53:41;;;;;;;2.50;1.20;;;7.60;71.00;;;;;;2589632;52;20915;-64
2021/03/17 04:56:08;;;;;;;2.80;1.48;;;7.60;71.00;;;;;;2347091;53;20967;-64
2021/03/17 04:58:38;;;;;;;2.55;1.45;;;7.60;71.10;;;;;;2343035;53;21809;-63
2021/03/17 05:01:08;;;;;;;3.20;1.60;;;7.60;71.00;;;;;;2590050;53;21016;-64
2021/03/17 05:03:36;;;;;;;3.28;1.80;;;7.60;71.00;;;;;;2590329;52;21015;-64
2021/03/17 05:06:03;;;;;;;3.03;1.48;;;7.60;70.90;;;;;;2347575;53;20991;-64
2021/03/17 05:08:29;;;;;;;2.83;1.65;;;7.60;70.90;;;;;;2342671;53;20967;-63
2021/03/17 05:10:56;;;;;;;3.12;1.85;;;7.60;70.90;;;;;;2342568;53;20996;-64
2021/03/17 05:13:22;;;;;;;3.17;1.70;;;7.60;71.00;;;;;;2590775;52;21687;-64
2021/03/17 05:15:50;;;;;;;2.87;1.60;;;7.60;70.80;;;;;;2588730;53;20899;-64
2021/03/17 05:18:17;;;;;;;3.22;1.60;;;7.60;70.80;;;;;;2590767;52;20937;-64
2021/03/17 05:20:48;;;;;;;3.78;1.70;;;7.60;70.80;;;;;;2590113;52;20944;-63
2021/03/17 05:23:16;;;;;;;4.25;1.73;;;7.60;70.90;;;;;;2343417;53;20995;-63
2021/03/17 05:25:43;;;;;;;3.35;1.60;;;7.60;70.90;;;;;;2347002;53;21447;-63
2021/03/17 05:28:12;;;;;;;3.17;1.85;;;7.60;70.90;;;;;;2589883;53;21008;-64
2021/03/17 05:30:39;;;;;;;3.10;1.80;;;7.60;70.90;;;;;;2341336;54;20977;-65
2021/03/17 05:33:08;;;;;;;2.90;1.60;;;7.60;71.60;;;;;;2589798;52;21298;-64
2021/03/17 05:35:35;;;;;;;3.28;1.90;;;7.60;71.20;;;;;;2346676;54;21061;-64
2021/03/17 05:38:02;;;;;;;3.10;1.80;;;7.60;70.90;;;;;;2334806;53;21072;-64
2021/03/17 05:40:31;;;;;;;3.60;2.10;;;7.60;70.90;;;;;;2350353;54;20974;-64
2021/03/17 05:43:01;;;;;;;3.00;1.80;;;7.60;70.90;;;;;;2336458;53;20989;-64
2021/03/17 05:45:28;;;;;;;3.67;1.80;;;7.60;70.90;;;;;;2344340;54;20936;-64
2021/03/17 05:48:03;;;;;;;3.37;1.85;;;7.50;70.80;;;;;;2588483;53;21024;-64
2021/03/17 05:50:30;;;;;;;3.72;1.92;;;7.50;70.90;;;;;;2337691;53;21245;-63
2021/03/17 05:52:57;;;;;;;3.78;2.08;;;7.60;71.10;;;;;;2588093;52;22296;-63
2021/03/17 05:55:23;;;;;;;3.40;1.92;;;7.60;71.10;;;;;;2348007;53;20943;-64
2021/03/17 05:57:50;;;;;;;4.20;2.30;;;7.60;71.10;;;;;;2344782;53;20972;-64
2021/03/17 06:00:20;;;;;;;3.62;2.00;;;7.60;71.10;;;;;;2337839;53;21006;-63
2021/03/17 06:02:47;;;;;;;3.62;2.05;;;7.60;71.10;;;;;;2338610;53;20996;-64
2021/03/17 06:05:14;;;;;;;3.10;1.67;;;7.60;71.10;;;;;;2343212;53;21024;-64
2021/03/17 06:07:58;;;;;;;2.87;1.65;;;7.60;71.30;;;;;;2590089;53;20969;-64
2021/03/17 06:10:24;;;;;;;3.55;1.85;;;7.60;71.30;;;;;;2342529;54;20992;-64
2021/03/17 06:12:56;;;;;;;3.17;1.90;;;7.60;71.30;;;;;;2346006;53;20959;-64
2021/03/17 06:15:23;;;;;;;4.22;2.00;;;7.60;71.30;;;;;;2342655;53;21516;-64
2021/03/17 06:18:01;;;;;;;5.95;2.33;;;7.60;71.20;;;;;;2588943;52;21000;-63
2021/03/17 06:20:28;;;;;;;3.25;1.83;;;7.60;71.10;;;;;;2345960;53;20915;-64
2021/03/17 06:22:54;;;;;;;4.40;1.85;;;7.60;71.30;;;;;;2342532;53;20999;-64
2021/03/17 06:25:21;;;;;;;3.78;1.95;;;7.60;71.40;;;;;;2346138;53;20927;-64
2021/03/17 06:27:48;;;;;;;3.45;1.98;;;7.60;71.40;;;;;;2347482;53;20919;-64
2021/03/17 06:30:15;;;;;;;3.78;2.00;;;7.70;71.40;;;;;;2343900;54;20996;-63
2021/03/17 06:32:42;;;;;;;3.97;2.58;;;7.70;71.40;;;;;;2591241;52;20983;-64
2021/03/17 06:35:24;;;;;;;3.30;2.10;;;7.70;71.40;;;;;;2343623;54;20991;-64
2021/03/17 06:37:53;;;;;;;3.22;1.87;;;7.70;71.20;;;;;;2590351;53;21059;-64
2021/03/17 06:40:56;;;;;;;3.30;1.90;;;7.70;71.30;;;;;;2348009;54;21000;-63
2021/03/17 06:43:24;;;;;;;3.92;1.52;;;7.70;71.20;;;;;;2590570;52;21392;-64
2021/03/17 06:45:50;;;;;;;3.08;1.77;;;7.70;71.10;;;;;;2343723;53;20980;-64
2021/03/17 06:48:32;;;;;;;3.87;2.10;;;7.70;71.20;;;;;;2590143;52;21016;-64
2021/03/17 06:51:17;;;;;;;3.80;2.35;;;7.80;71.40;;;;;;2590422;53;20942;-64
2021/03/17 06:55:01;;;;;;;3.67;2.30;;;7.80;71.10;;;;;;2591329;52;21019;-64
2021/03/17 06:57:32;;;;;;;4.22;2.47;;;7.80;70.80;;;;;;2330374;53;20952;-63
2021/03/17 07:00:17;;;;;;;4.03;2.47;;;7.80;71.20;;;;;;2590241;53;20991;-65
2021/03/17 07:02:53;;;;;;;3.75;2.28;;;7.80;71.10;;;;;;2590760;52;20947;-63
2021/03/17 07:05:21;;;;;;;4.70;2.78;;;7.80;71.10;;;;;;2344380;54;20961;-64
2021/03/17 07:07:50;;;;;;;4.15;2.60;;;7.80;71.20;;;;;;2590849;52;20960;-63
2021/03/17 07:10:36;;;;;;;4.80;3.00;;;7.80;71.10;;;;;;2589462;52;20981;-63
2021/03/17 07:13:04;;;;;;;4.40;2.85;;;7.80;70.80;;;;;;2590239;52;20926;-64
2021/03/17 07:15:31;;;;;;;5.35;3.28;;;7.80;71.00;;;;;;2590221;52;20963;-64
2021/03/17 07:18:23;;;;;;;5.05;3.30;;;7.80;71.60;;;;;;2337029;53;20955;-63
2021/03/17 07:21:11;;;;;;;5.43;2.78;;;7.80;70.70;;;;;;2590527;53;20924;-63
2021/03/17 07:23:41;;;;;;;5.07;2.72;;;7.80;70.80;;;;;;2345903;54;20960;-63
2021/03/17 07:26:20;;;;;;;4.55;2.83;;;7.70;70.80;;;;;;2562762;52;21058;-63
2021/03/17 07:29:11;;;;;;;5.53;3.37;;;7.70;70.80;;;;;;2346242;53;21929;-63
2021/03/17 07:31:42;;;;;;;4.75;3.10;;;7.70;70.70;;;;;;2332524;54;21000;-65
2021/03/17 07:34:54;;;;;;;4.90;2.83;;;7.70;71.00;;;;;;2321945;55;20948;-63
2021/03/17 07:37:27;;;;;;;5.37;3.10;;;7.70;70.90;;;;;;2589642;52;21033;-63
2021/03/17 07:39:53;;;;;;;5.93;3.47;;;7.80;71.60;;;;;;2332940;53;21049;-63
2021/03/17 07:42:23;;;;;;;5.53;3.87;;;7.80;71.80;;;;;;2347710;53;20987;-64
2021/03/17 07:44:49;;;;;;;4.95;3.50;;;7.80;71.90;;;;;;2575414;53;21544;-63
2021/03/17 07:47:15;;;;;;;5.18;3.30;;;7.80;72.20;;;;;;2588830;52;21570;-64
2021/03/17 07:49:45;;;;;;;5.03;2.85;;;7.80;72.40;;;;;;2345373;53;21783;-64
2021/03/17 07:52:19;;;;;;;5.62;3.62;;;7.90;72.20;;;;;;2570072;52;21016;-63
2021/03/17 07:54:50;;;;;;;5.53;3.60;;;7.90;72.10;;;;;;2347785;53;20955;-64
2021/03/17 07:57:16;;;;;;;5.68;3.60;;;7.90;72.00;;;;;;2590035;52;21030;-63
2021/03/17 07:59:43;;;;;;;4.87;2.97;;;8.00;72.10;;;;;;2343291;53;20979;-63
2021/03/17 08:02:10;;;;;;;5.65;3.45;;;8.00;72.20;;;;;;2347124;53;21057;-64
2021/03/17 08:04:37;;;;;;;5.75;3.60;;;8.00;72.20;;;;;;2348208;53;20987;-63
2021/03/17 08:07:04;;;;;;;5.57;3.55;;;8.10;72.30;;;;;;2576936;52;20963;-63
2021/03/17 08:09:31;;;;;;;5.22;3.17;;;8.10;72.30;;;;;;2590459;52;20948;-63
2021/03/17 08:12:09;;;;;;;4.68;2.97;;;8.10;72.30;;;;;;2348488;53;20960;-63
2021/03/17 08:14:35;;;;;;;5.20;3.28;;;8.20;72.20;;;;;;2582437;52;20947;-64
2021/03/17 08:17:02;;;;;;;5.53;3.08;;;8.20;72.40;;;;;;2590203;53;20961;-64
2021/03/17 08:19:29;;;;;;;5.43;3.65;;;8.20;72.40;;;;;;2348684;54;21020;-64
2021/03/17 08:21:57;;;;;;;5.12;3.28;;;8.30;72.30;;;;;;2581651;52;20983;-65
2021/03/17 08:24:56;;;;;;;4.75;2.95;;;8.30;72.20;;;;;;2339866;53;21043;-64
2021/03/17 08:27:24;;;;;;;5.05;3.28;;;8.30;71.50;;;;;;2590863;52;21500;-64
2021/03/17 08:30:29;;;;;;;4.97;2.92;;;8.30;71.80;;;;;;2589977;53;20948;-63
2021/03/17 08:32:59;;;;;;;5.90;3.30;;;8.40;72.00;;;;;;2589912;52;21487;-64
2021/03/17 08:36:13;;;;;;;5.37;3.40;;;8.40;71.90;;;;;;2344145;54;20944;-64
2021/03/17 08:39:02;;;;;;;5.25;3.10;;;8.40;71.40;;;;;;2344370;54;20975;-64
2021/03/17 08:45:57;;;;;;;4.87;3.22;;;8.40;71.50;;;;;;2342816;53;21280;-64
2021/03/17 08:49:10;;;;;;;4.45;2.70;;;8.50;70.80;;;;;;2343741;54;20964;-64
2021/03/17 08:52:38;;;;;;;5.85;3.28;;;8.40;71.00;;;;;;2347172;54;21028;-64
2021/03/17 08:55:07;;;;;;;4.57;2.72;;;8.50;71.20;;;;;;2589671;52;20992;-63
2021/03/17 08:57:53;;;;;;;6.93;3.70;;;8.50;71.70;;;;;;2590532;53;21464;-64
2021/03/17 09:00:57;;;;;;;5.97;3.55;;;8.50;71.50;;;;;;2344643;54;21055;-64
2021/03/17 09:03:40;;;;;;;5.53;3.35;;;8.50;71.40;;;;;;2343642;54;21040;-64
2021/03/17 09:06:11;;;;;;;5.60;3.47;;;8.50;71.40;;;;;;2344096;54;20956;-63
2021/03/17 09:09:01;;;;;;;6.20;3.78;;;8.50;71.50;;;;;;2590018;52;20920;-64
2021/03/17 09:12:10;;;;;;;6.90;3.58;;;8.50;71.50;;;;;;2590083;53;20972;-64
2021/03/17 09:14:38;;;;;;;6.40;3.90;;;8.50;71.20;;;;;;2591392;52;21024;-64
2021/03/17 09:17:23;;;;;;;7.20;4.18;;;8.50;71.70;;;;;;2343270;54;21027;-64
2021/03/17 09:21:14;;;;;;;6.57;4.12;;;8.50;71.60;;;;;;2325073;54;20952;-64
2021/03/17 09:23:41;;;;;;;6.15;3.72;;;8.50;71.80;;;;;;2590135;52;20915;-64
2021/03/17 09:26:07;;;;;;;7.87;4.72;;;8.60;72.10;;;;;;2344756;53;20981;-63
2021/03/17 09:28:37;;;;;;;7.00;4.37;;;8.60;72.20;;;;;;2351124;53;21521;-64
2021/03/17 09:31:09;;;;;;;8.85;5.07;;;8.60;72.80;;;;;;2337477;53;20952;-64
2021/03/17 09:33:40;;;;;;;7.05;4.25;;;8.70;72.10;;;;;;2354851;53;21009;-64
2021/03/17 09:36:48;;;;;;;9.10;5.45;;;8.70;71.90;;;;;;2582861;52;20968;-64
2021/03/17 09:39:16;;;;;;;6.78;4.10;;;8.70;71.40;;;;;;2590666;52;20940;-64
2021/03/17 09:41:47;;;;;;;7.10;4.40;;;8.70;71.80;;;;;;2344628;54;21021;-64
2021/03/17 09:44:13;;;;;;;8.13;4.62;;;8.70;71.70;;;;;;2347073;53;20918;-64
2021/03/17 09:46:41;;;;;;;8.02;4.62;;;8.70;71.70;;;;;;2343808;53;21444;-63
2021/03/17 09:49:15;;;;;;;10.02;5.30;;;8.70;71.60;;;;;;2344005;54;20944;-64
2021/03/17 09:51:51;;;;;;;9.23;5.40;;;8.70;71.40;;;;;;2343988;54;21556;-64
2021/03/17 09:54:19;;;;;;;9.00;5.25;;;8.70;71.30;;;;;;2347208;53;20947;-64
2021/03/17 09:56:59;;;;;;;9.30;5.40;;;8.70;71.10;;;;;;2344074;53;20973;-64
2021/03/17 09:59:35;;;;;;;8.63;5.00;;;8.70;70.90;;;;;;2563029;53;21032;-64
2021/03/17 10:02:21;;;;;;;8.07;5.10;;;8.60;71.00;;;;;;2589484;52;20965;-64
2021/03/17 10:04:49;;;;;;;8.18;4.50;;;8.60;71.40;;;;;;2337392;53;20974;-64
2021/03/17 10:07:17;;;;;;;7.70;4.57;;;8.60;72.00;;;;;;2342443;53;20988;-64
2021/03/17 10:09:44;;;;;;;8.23;4.90;;;8.60;72.50;;;;;;2344035;54;20955;-64
2021/03/17 10:12:21;;;;;;;7.45;4.25;;;8.70;73.10;;;;;;2346908;53;21784;-64
2021/03/17 10:14:50;;;;;;;6.30;3.53;;;8.70;73.20;;;;;;2346915;53;21034;-63
2021/03/17 10:17:16;;;;;;;5.85;3.53;;;8.80;73.10;;;;;;2335753;53;20979;-64
2021/03/17 10:19:46;;;;;;;5.95;3.67;;;8.80;72.90;;;;;;2589959;52;20987;-64
2021/03/17 10:22:15;;;;;;;6.65;3.80;;;8.70;72.50;;;;;;2333513;53;21031;-64
2021/03/17 10:24:45;;;;;;;6.37;3.20;;;8.90;72.10;;;;;;2355479;53;21124;-64
2021/03/17 10:27:13;;;;;;;4.68;2.80;;;8.90;71.60;;;;;;2340613;53;20988;-64
2021/03/17 10:29:43;;;;;;;5.30;3.12;;;8.90;71.50;;;;;;2581121;53;21039;-64
2021/03/17 10:32:10;;;;;;;5.43;3.10;;;8.90;71.50;;;;;;2328792;53;20936;-64
2021/03/17 10:34:37;;;;;;;5.35;3.17;;;8.90;71.90;;;;;;2343672;54;21452;-64
2021/03/17 10:37:04;;;;;;;5.78;3.10;;;8.90;72.50;;;;;;2343751;54;20940;-65
2021/03/17 10:39:35;;;;;;;6.40;3.72;;;8.90;73.10;;;;;;2351377;53;20956;-65
2021/03/17 10:42:01;;;;;;;5.80;3.30;;;9.00;73.40;;;;;;2288706;54;3175661;-64
2021/03/17 10:44:29;;;;;;;5.45;3.10;;;9.10;73.80;;;;;;2331426;54;20976;-65
2021/03/17 10:47:09;;;;;;;5.55;3.00;;;9.10;73.50;;;;;;2590822;52;20965;-65
2021/03/17 10:49:44;;;;;;;5.82;2.95;;;9.20;73.30;;;;;;2346571;53;20963;-64
2021/03/17 10:52:11;;;;;;;5.47;3.20;;;9.30;73.60;;;;;;2343394;53;21412;-64
2021/03/17 10:54:39;;;;;;;5.35;3.17;;;9.40;74.70;;;;;;2350910;54;21003;-64
2021/03/17 10:57:18;;;;;;;5.20;3.10;;;9.50;74.00;;;;;;2337441;53;20921;-64
2021/03/17 10:59:45;;;;;;;5.43;2.87;;;9.50;73.80;;;;;;2346307;53;20964;-65
2021/03/17 11:02:44;;;;;;;5.20;3.25;;;9.60;73.70;;;;;;2590304;52;20956;-65
2021/03/17 11:05:24;;;;;;;5.30;2.62;;;9.70;73.10;;;;;;2343604;54;20940;-64
2021/03/17 11:08:06;;;;;;;4.70;2.87;;;9.70;73.50;;;;;;2344187;54;21768;-65
2021/03/17 11:10:53;;;;;;;4.32;2.50;;;9.80;73.40;;;;;;2324453;55;21008;-65
2021/03/17 11:13:28;;;;;;;5.60;3.12;;;9.90;73.10;;;;;;2342884;54;20940;-65
2021/03/17 11:16:02;;;;;;;6.20;3.20;;;9.90;73.10;;;;;;2590068;52;20993;-65
2021/03/17 11:18:48;;;;;;;4.85;2.90;;;10.00;72.10;;;;;;2324070;55;20997;-65
2021/03/17 11:21:56;;;;;;;5.50;2.90;;;10.10;71.80;;;;;;2351415;53;20932;-65
2021/03/17 11:24:22;;;;;;;6.53;2.87;;;10.10;71.50;;;;;;2331975;53;21044;-64
2021/03/17 11:26:49;;;;;;;6.97;4.12;;;10.20;72.50;;;;;;2344084;54;21027;-64
2021/03/17 11:29:23;;;;;;;6.70;3.80;;;10.20;72.40;;;;;;2347176;53;21026;-64
2021/03/17 11:32:04;;;;;;;5.40;3.37;;;10.30;72.20;;;;;;2589570;52;21004;-65
2021/03/17 11:34:30;;;;;;;5.87;3.53;;;10.30;72.40;;;;;;2562518;53;21086;-65
2021/03/17 11:36:59;;;;;;;6.87;4.12;;;10.40;72.20;;;;;;2346722;53;20931;-64
2021/03/17 11:39:26;;;;;;;7.00;4.65;;;10.40;71.90;;;;;;2348089;53;20960;-65
2021/03/17 11:41:52;;;;;;;6.93;4.30;;;10.50;71.90;;;;;;2589529;52;20992;-65
2021/03/17 11:44:20;;;;;;;7.12;4.37;;;10.50;72.00;;;;;;2342013;54;21004;-65
2021/03/17 11:46:48;;;;;;;7.45;4.50;;;10.60;72.10;;;;;;2346392;53;20935;-64
2021/03/17 11:49:15;;;;;;;7.20;3.97;;;10.70;72.20;;;;;;2347216;53;20911;-64
2021/03/17 11:51:43;;;;;;;8.30;5.45;;;10.70;72.50;;;;;;2343152;53;20956;-65
2021/03/17 11:54:10;;;;;;;8.82;5.55;;;10.80;73.30;;;;;;2344468;54;21433;-65
2021/03/17 11:56:36;;;;;;;7.40;4.80;;;11.00;74.00;;;;;;2343823;53;21087;-65
2021/03/17 11:59:02;;;;;;;7.65;4.85;;;11.10;74.10;;;;;;2590495;52;20891;-66
2021/03/17 12:01:29;;;;;;;7.20;4.62;;;11.20;73.70;;;;;;2332033;53;21397;-65
2021/03/17 12:03:55;;;;;;;6.45;4.60;;;11.30;73.30;;;;;;2336547;53;21019;-64
2021/03/17 12:06:22;;;;;;;8.60;5.35;;;11.40;73.20;;;;;;2347103;53;20922;-65
2021/03/17 12:08:48;;;;;;;8.32;5.53;;;11.50;73.10;;;;;;2346073;53;21035;-65
2021/03/17 12:11:17;;;;;;;9.00;5.90;;;11.60;74.00;;;;;;2342528;53;21638;-65
2021/03/17 12:13:44;;;;;;;9.50;6.50;;;11.70;74.70;;;;;;2343824;54;21047;-65
2021/03/17 12:16:14;;;;;;;11.18;7.43;;;11.90;76.60;;;;;;2589270;53;20895;-65
2021/03/17 12:18:41;;;;;;;11.95;6.65;;;12.20;78.00;;;;;;2590108;52;21757;-65
2021/03/17 12:21:07;;;;;;;9.52;6.32;;;12.50;79.00;;;;;;2343327;54;21449;-65
2021/03/17 12:23:35;;;;;;;8.43;5.80;;;12.80;78.60;;;;;;2347140;53;21810;-65
2021/03/17 12:26:02;;;;;;;7.22;5.20;;;13.10;77.10;;;;;;2318957;54;21000;-66
2021/03/17 12:28:28;;;;;;;7.15;4.85;;;13.30;75.20;;;;;;2332207;53;20967;-65
2021/03/17 12:30:55;;;;;;;7.50;5.12;;;13.50;73.50;;;;;;2343916;54;20940;-65
2021/03/17 12:33:21;;;;;;;6.90;4.50;;;13.50;71.90;;;;;;2344280;54;20940;-65
2021/03/17 12:35:47;;;;;;;6.90;4.70;;;13.60;71.40;;;;;;2346759;53;21528;-65
2021/03/17 12:38:14;;;;;;;7.28;5.03;;;13.60;71.20;;;;;;2588757;52;21400;-66
2021/03/17 12:40:40;;;;;;;7.70;4.65;;;13.60;70.40;;;;;;2343350;53;21552;-65
2021/03/17 12:43:06;;;;;;;8.38;5.20;;;13.60;69.80;;;;;;2345210;53;21511;-65
2021/03/17 12:45:40;;;;;;;6.80;5.00;;;13.50;68.90;;;;;;2348038;53;21781;-65
2021/03/17 12:48:07;;;;;;;8.18;4.72;;;13.50;68.00;;;;;;2582027;52;20941;-65
2021/03/17 12:50:35;;;;;;;6.43;4.30;;;13.40;67.00;;;;;;2336739;54;20960;-65
2021/03/17 12:53:02;;;;;;;4.47;2.95;;;13.20;65.60;;;;;;2335254;53;21015;-65
2021/03/17 12:55:28;;;;;;;4.57;2.90;;;13.00;63.80;;;;;;2565319;53;20971;-65
2021/03/17 12:57:55;;;;;;;3.47;2.10;;;12.80;62.50;;;;;;2347084;53;20967;-65
2021/03/17 13:00:24;;;;;;;3.47;2.00;;;12.50;61.40;;;;;;2573334;52;20975;-64
2021/03/17 13:02:51;;;;;;;3.28;1.80;;;12.10;60.70;;;;;;2352444;53;20973;-65
2021/03/17 13:05:17;;;;;;;3.75;2.17;;;11.80;60.50;;;;;;2582409;52;20947;-64
2021/03/17 13:07:44;;;;;;;3.72;1.98;;;11.40;60.80;;;;;;2343360;53;21468;-64
2021/03/17 13:10:13;;;;;;;3.72;1.87;;;11.10;61.50;;;;;;2343127;54;20957;-64
2021/03/17 13:12:41;;;;;;;4.20;2.00;;;10.80;62.10;;;;;;2590926;53;20963;-64
2021/03/17 13:15:09;;;;;;;4.22;2.20;;;10.60;62.80;;;;;;2589707;52;20928;-64
2021/03/17 13:17:35;;;;;;;2.80;1.40;;;10.40;63.40;;;;;;2562792;53;21882;-64
2021/03/17 13:20:11;;;;;;;3.85;2.15;;;10.20;64.20;;;;;;2343281;53;20951;-65
2021/03/17 13:22:37;;;;;;;4.25;2.20;;;10.00;64.60;;;;;;2323787;55;21044;-64
2021/03/17 13:25:05;;;;;;;3.75;2.10;;;9.90;66.50;;;;;;2347742;54;20979;-64
2021/03/17 13:27:31;;;;;;;4.28;2.47;;;9.80;67.40;;;;;;2342952;53;20944;-65
2021/03/17 13:29:59;;;;;;;3.12;1.77;;;9.70;68.50;;;;;;2344752;54;20957;-64
2021/03/17 13:32:26;;;;;;;4.00;2.37;;;9.70;69.60;;;;;;2590948;52;20952;-64
2021/03/17 13:34:52;;;;;;;4.43;2.28;;;9.70;70.90;;;;;;2347042;54;21506;-64
2021/03/17 13:37:21;;;;;;;4.12;2.42;;;9.70;72.40;;;;;;2343342;53;21178;-64
2021/03/17 13:39:48;;;;;;;5.20;3.12;;;9.80;73.90;;;;;;2342979;54;21032;-64